createdAt,value
2018-08-12T00:00:14.126Z,16.80
2018-08-12T00:02:42.284Z,16.80
2018-08-12T00:05:11.323Z,16.80
2018-08-12T00:07:39.859Z,16.70
2018-08-12T00:10:09.535Z,16.70
2018-08-12T00:12:38.050Z,16.60
2018-08-12T00:15:08.283Z,16.70
2018-08-12T00:17:36.844Z,16.70
2018-08-12T00:20:06.459Z,16.70
2018-08-12T00:22:34.940Z,16.70
2018-08-12T00:25:03.657Z,16.60
2018-08-12T00:27:32.102Z,16.60
2018-08-12T00:30:00.868Z,16.60
2018-08-12T00:32:29.506Z,16.60
2018-08-12T00:34:57.722Z,16.60
2018-08-12T00:37:25.913Z,16.60
2018-08-12T00:39:54.593Z,16.50
2018-08-12T00:42:22.959Z,16.40
2018-08-12T00:44:51.469Z,16.40
2018-08-12T00:47:19.939Z,16.40
2018-08-12T00:49:48.727Z,16.40
2018-08-12T00:52:17.551Z,16.40
2018-08-12T00:54:46.352Z,16.50
2018-08-12T00:57:14.749Z,16.60
2018-08-12T00:59:44.106Z,16.60
2018-08-12T01:02:12.475Z,16.60
2018-08-12T01:04:40.879Z,16.40
2018-08-12T01:07:09.503Z,16.30
2018-08-12T01:09:38.021Z,16.20
2018-08-12T01:12:06.957Z,16.20
2018-08-12T01:14:35.305Z,16.10
2018-08-12T01:17:03.784Z,16.00
2018-08-12T01:19:32.470Z,15.90
2018-08-12T01:22:00.857Z,15.90
2018-08-12T01:24:29.226Z,15.90
2018-08-12T01:26:57.582Z,15.90
2018-08-12T01:29:25.979Z,15.80
2018-08-12T01:31:54.849Z,15.70
2018-08-12T01:34:23.560Z,15.60
2018-08-12T01:36:52.597Z,15.50
2018-08-12T01:39:21.739Z,15.50
2018-08-12T01:41:50.074Z,15.50
2018-08-12T01:44:19.182Z,15.50
2018-08-12T01:46:48.196Z,15.50
2018-08-12T01:49:16.635Z,15.50
2018-08-12T01:51:45.387Z,15.40
2018-08-12T01:54:14.178Z,15.40
2018-08-12T01:56:42.968Z,15.40
2018-08-12T01:59:11.710Z,15.50
2018-08-12T02:01:40.779Z,15.50
2018-08-12T02:04:09.527Z,15.40
2018-08-12T02:06:37.862Z,15.40
2018-08-12T02:09:07.835Z,15.30
2018-08-12T02:11:36.521Z,15.30
2018-08-12T02:14:05.126Z,15.20
2018-08-12T02:16:33.983Z,15.20
2018-08-12T02:19:03.084Z,15.10
2018-08-12T02:21:32.102Z,15.10
2018-08-12T02:24:00.855Z,15.10
2018-08-12T02:26:29.403Z,15.00
2018-08-12T02:28:58.509Z,15.00
2018-08-12T02:31:27.222Z,14.90
2018-08-12T02:33:55.679Z,14.90
2018-08-12T02:36:24.420Z,14.80
2018-08-12T02:38:52.831Z,14.70
2018-08-12T02:41:21.524Z,14.60
2018-08-12T02:43:49.908Z,14.50
2018-08-12T02:46:18.625Z,14.40
2018-08-12T02:48:47.057Z,14.40
2018-08-12T02:51:15.424Z,14.30
2018-08-12T02:53:44.514Z,14.20
2018-08-12T02:56:13.003Z,14.00
2018-08-12T02:58:41.381Z,13.90
2018-08-12T03:01:09.771Z,13.80
2018-08-12T03:03:38.458Z,13.80
2018-08-12T03:06:06.922Z,13.80
2018-08-12T03:08:35.304Z,13.80
2018-08-12T03:11:03.859Z,13.80
2018-08-12T03:13:32.967Z,13.80
2018-08-12T03:16:01.689Z,13.70
2018-08-12T03:18:30.424Z,13.70
2018-08-12T03:20:58.831Z,13.70
2018-08-12T03:23:27.279Z,13.60
2018-08-12T03:25:55.831Z,13.60
2018-08-12T03:28:24.272Z,13.60
2018-08-12T03:30:52.998Z,13.60
2018-08-12T03:33:21.338Z,13.60
2018-08-12T03:35:49.779Z,13.60
2018-08-12T03:38:18.811Z,13.50
2018-08-12T03:40:47.555Z,13.40
2018-08-12T03:43:15.931Z,13.40
2018-08-12T03:45:44.642Z,13.40
2018-08-12T03:48:13.372Z,13.30
2018-08-12T03:50:42.486Z,13.40
2018-08-12T03:53:10.877Z,13.30
2018-08-12T03:55:39.306Z,13.20
2018-08-12T03:58:07.610Z,13.20
2018-08-12T04:00:36.350Z,13.10
2018-08-12T04:03:05.006Z,13.10
2018-08-12T04:05:33.367Z,13.10
2018-08-12T04:08:02.045Z,13.10
2018-08-12T04:10:31.204Z,13.10
2018-08-12T04:12:59.609Z,13.10
2018-08-12T04:15:27.927Z,13.00
2018-08-12T04:17:56.598Z,13.00
2018-08-12T04:20:25.008Z,13.00
2018-08-12T04:22:53.388Z,13.00
2018-08-12T04:25:22.541Z,13.00
2018-08-12T04:27:51.005Z,13.10
2018-08-12T04:30:20.172Z,13.10
2018-08-12T04:32:49.264Z,13.10
2018-08-12T04:35:17.643Z,13.00
2018-08-12T04:37:47.769Z,13.10
2018-08-12T04:40:16.161Z,13.10
2018-08-12T04:42:44.947Z,13.10
2018-08-12T04:45:13.529Z,13.20
2018-08-12T04:47:42.032Z,13.30
2018-08-12T04:50:10.411Z,13.30
2018-08-12T04:52:39.082Z,13.30
2018-08-12T04:55:07.705Z,13.40
2018-08-12T04:57:36.151Z,13.50
2018-08-12T05:00:05.718Z,13.50
2018-08-12T05:02:34.853Z,13.60
2018-08-12T05:05:03.627Z,13.70
2018-08-12T05:07:32.460Z,13.80
2018-08-12T05:10:01.207Z,13.90
2018-08-12T05:12:29.574Z,14.10
2018-08-12T05:14:58.230Z,14.30
2018-08-12T05:17:26.907Z,14.40
2018-08-12T05:19:55.957Z,14.60
2018-08-12T05:22:24.672Z,14.80
2018-08-12T05:24:53.407Z,15.20
2018-08-12T05:27:22.115Z,15.50
2018-08-12T05:29:50.265Z,15.90
2018-08-12T05:32:18.712Z,16.30
2018-08-12T05:34:46.938Z,16.80
2018-08-12T05:37:15.046Z,17.10
2018-08-12T05:39:43.472Z,17.40
2018-08-12T05:42:11.972Z,17.80
2018-08-12T05:44:40.464Z,18.10
2018-08-12T05:47:09.292Z,18.40
2018-08-12T05:49:37.451Z,18.80
2018-08-12T05:52:05.939Z,18.90
2018-08-12T05:54:34.112Z,19.00
2018-08-12T05:57:02.193Z,19.10
2018-08-12T05:59:30.265Z,19.40
2018-08-12T06:01:58.434Z,19.40
2018-08-12T06:04:27.243Z,19.50
2018-08-12T06:06:55.852Z,19.30
2018-08-12T06:09:24.334Z,19.30
2018-08-12T06:11:52.412Z,19.50
2018-08-12T06:14:20.850Z,19.50
2018-08-12T06:16:49.629Z,19.80
2018-08-12T06:19:18.348Z,20.00
2018-08-12T06:21:47.118Z,20.20
2018-08-12T06:24:15.589Z,20.40
2018-08-12T06:26:44.013Z,20.60
2018-08-12T06:29:12.554Z,20.80
2018-08-12T06:31:40.682Z,20.70
2018-08-12T06:34:08.774Z,21.30
2018-08-12T06:36:37.383Z,21.40
2018-08-12T06:39:07.975Z,21.40
2018-08-12T06:41:36.052Z,21.40
2018-08-12T06:44:04.298Z,21.20
2018-08-12T06:46:33.129Z,21.00
2018-08-12T06:49:01.215Z,21.10
2018-08-12T06:51:29.398Z,21.10
2018-08-12T06:53:57.840Z,21.50
2018-08-12T06:56:26.141Z,22.20
2018-08-12T06:58:54.925Z,22.50
2018-08-12T07:01:23.696Z,22.30
2018-08-12T07:03:51.793Z,22.30
2018-08-12T07:06:20.634Z,22.30
2018-08-12T07:08:49.027Z,22.30
2018-08-12T07:11:17.825Z,22.50
2018-08-12T07:13:45.944Z,22.70
2018-08-12T07:16:14.028Z,23.30
2018-08-12T07:18:42.586Z,23.10
2018-08-12T07:21:10.738Z,22.90
2018-08-12T07:23:38.938Z,22.70
2018-08-12T07:26:07.095Z,23.10
2018-08-12T07:28:35.289Z,23.20
2018-08-12T07:31:03.461Z,23.40
2018-08-12T07:33:31.569Z,23.30
2018-08-12T07:36:00.394Z,23.80
2018-08-12T07:38:28.492Z,24.10
2018-08-12T07:40:56.616Z,24.10
2018-08-12T07:43:25.101Z,24.00
2018-08-12T07:45:53.228Z,24.20
2018-08-12T07:48:21.348Z,24.40
2018-08-12T07:50:49.823Z,24.10
2018-08-12T07:53:18.255Z,24.30
2018-08-12T07:55:46.702Z,24.20
2018-08-12T07:58:15.023Z,23.80
2018-08-12T08:00:43.139Z,23.90
2018-08-12T08:03:11.616Z,24.20
2018-08-12T08:05:39.677Z,24.50
2018-08-12T08:08:08.068Z,24.60
2018-08-12T08:10:36.810Z,25.10
2018-08-12T08:13:04.881Z,25.20
2018-08-12T08:15:32.993Z,25.40
2018-08-12T08:18:01.168Z,25.50
2018-08-12T08:20:29.638Z,25.70
2018-08-12T08:22:58.435Z,25.70
2018-08-12T08:25:26.660Z,25.80
2018-08-12T08:27:54.876Z,25.80
2018-08-12T08:30:23.099Z,25.90
2018-08-12T08:32:51.243Z,25.60
2018-08-12T08:35:20.868Z,25.70
2018-08-12T08:37:49.479Z,25.90
2018-08-12T08:40:18.176Z,26.00
2018-08-12T08:42:46.762Z,26.10
2018-08-12T08:45:17.410Z,25.70
2018-08-12T08:47:46.589Z,25.60
2018-08-12T08:50:15.372Z,25.80
2018-08-12T08:52:43.979Z,25.70
2018-08-12T08:55:13.473Z,25.80
2018-08-12T08:57:41.550Z,26.40
2018-08-12T09:00:13.014Z,26.70
2018-08-12T09:02:41.976Z,27.10
2018-08-12T09:05:11.727Z,27.20
2018-08-12T09:07:40.174Z,27.30
2018-08-12T09:10:09.736Z,27.30
2018-08-12T09:12:38.296Z,27.70
2018-08-12T09:15:07.741Z,27.60
2018-08-12T09:17:35.872Z,27.50
2018-08-12T09:20:05.046Z,27.00
2018-08-12T09:22:33.524Z,27.00
2018-08-12T09:25:01.631Z,27.20
2018-08-12T09:27:30.133Z,27.60
2018-08-12T09:29:58.461Z,27.60
2018-08-12T09:32:26.591Z,28.00
2018-08-12T09:34:54.744Z,27.50
2018-08-12T09:37:22.897Z,26.70
2018-08-12T09:39:51.354Z,26.60
2018-08-12T09:42:19.816Z,27.30
2018-08-12T09:44:47.890Z,27.50
2018-08-12T09:47:16.044Z,27.80
2018-08-12T09:49:44.502Z,28.10
2018-08-12T09:52:12.668Z,28.20
2018-08-12T09:54:40.821Z,28.50
2018-08-12T09:57:09.204Z,28.30
2018-08-12T09:59:37.644Z,27.80
2018-08-12T10:02:05.732Z,27.60
2018-08-12T10:04:34.221Z,28.10
2018-08-12T10:07:03.037Z,28.50
2018-08-12T10:09:31.206Z,28.30
2018-08-12T10:11:59.316Z,28.50
2018-08-12T10:14:28.137Z,28.70
2018-08-12T10:16:56.212Z,28.80
2018-08-12T10:19:24.273Z,28.80
2018-08-12T10:21:52.350Z,29.00
2018-08-12T10:24:20.826Z,29.10
2018-08-12T10:26:48.930Z,29.20
2018-08-12T10:29:17.479Z,29.40
2018-08-12T10:31:45.636Z,29.40
2018-08-12T10:34:13.768Z,29.30
2018-08-12T10:36:42.196Z,29.50
2018-08-12T10:39:10.326Z,30.10
2018-08-12T10:41:38.438Z,29.90
2018-08-12T10:44:06.859Z,30.20
2018-08-12T10:46:34.967Z,30.50
2018-08-12T10:49:03.423Z,31.00
2018-08-12T10:51:31.625Z,30.90
2018-08-12T10:53:59.722Z,30.50
2018-08-12T10:56:27.858Z,29.60
2018-08-12T10:58:56.244Z,30.00
2018-08-12T11:01:24.675Z,29.50
2018-08-12T11:03:53.154Z,28.70
2018-08-12T11:06:21.249Z,28.70
2018-08-12T11:08:49.691Z,29.00
2018-08-12T11:11:18.238Z,30.00
2018-08-12T11:13:46.695Z,30.50
2018-08-12T11:16:14.754Z,31.10
2018-08-12T11:18:42.832Z,31.20
2018-08-12T11:21:11.059Z,31.40
2018-08-12T11:23:39.808Z,31.00
2018-08-12T11:26:08.013Z,30.20
2018-08-12T11:28:36.496Z,30.10
2018-08-12T11:31:05.050Z,30.40
2018-08-12T11:33:33.531Z,30.10
2018-08-12T11:36:02.025Z,30.00
2018-08-12T11:38:31.059Z,30.10
2018-08-12T11:40:59.517Z,30.40
2018-08-12T11:43:27.746Z,30.20
2018-08-12T11:45:55.980Z,30.70
2018-08-12T11:48:24.394Z,31.60
2018-08-12T11:50:52.532Z,32.60
2018-08-12T11:53:21.322Z,33.50
2018-08-12T11:55:49.877Z,33.30
2018-08-12T11:58:18.301Z,33.60
2018-08-12T12:00:46.729Z,33.00
2018-08-12T12:03:14.806Z,32.40
2018-08-12T12:05:43.217Z,32.80
2018-08-12T12:08:12.242Z,33.50
2018-08-12T12:10:45.282Z,33.90
2018-08-12T12:13:13.379Z,34.50
2018-08-12T12:15:41.502Z,33.80
2018-08-12T12:18:09.611Z,33.50
2018-08-12T12:20:37.788Z,33.60
2018-08-12T12:23:06.366Z,33.40
2018-08-12T12:25:34.477Z,33.10
2018-08-12T12:28:02.755Z,33.90
2018-08-12T12:30:31.212Z,34.70
2018-08-12T12:32:59.646Z,34.40
2018-08-12T12:35:28.143Z,34.70
2018-08-12T12:37:56.843Z,34.80
2018-08-12T12:40:24.900Z,34.90
2018-08-12T12:42:53.424Z,34.60
2018-08-12T12:45:21.605Z,34.90
2018-08-12T12:47:50.414Z,34.90
2018-08-12T12:50:20.331Z,34.60
2018-08-12T12:52:49.974Z,34.70
2018-08-12T12:55:19.529Z,35.10
2018-08-12T12:57:47.619Z,35.90
2018-08-12T13:00:17.196Z,36.20
2018-08-12T13:02:45.495Z,35.40
2018-08-12T13:05:15.080Z,35.50
2018-08-12T13:07:45.043Z,35.90
2018-08-12T13:10:14.227Z,36.50
2018-08-12T13:12:43.198Z,36.20
2018-08-12T13:15:12.521Z,34.70
2018-08-12T13:17:40.754Z,34.20
2018-08-12T13:20:11.811Z,34.70
2018-08-12T13:22:40.075Z,34.40
2018-08-12T13:25:11.190Z,34.20
2018-08-12T13:27:39.485Z,34.40
2018-08-12T13:30:08.637Z,35.10
2018-08-12T13:32:36.762Z,36.20
2018-08-12T13:35:04.917Z,36.40
2018-08-12T13:37:33.252Z,35.80
2018-08-12T13:40:01.659Z,35.30
2018-08-12T13:42:29.775Z,34.10
2018-08-12T13:44:58.189Z,34.20
2018-08-12T13:47:26.245Z,34.50
2018-08-12T13:49:54.666Z,34.80
2018-08-12T13:52:22.715Z,33.80
2018-08-12T13:54:51.114Z,33.30
2018-08-12T13:57:19.330Z,33.70
2018-08-12T13:59:47.722Z,34.60
2018-08-12T14:02:15.812Z,35.20
2018-08-12T14:04:43.891Z,35.40
2018-08-12T14:07:12.385Z,35.70
2018-08-12T14:09:40.465Z,35.30
2018-08-12T14:12:08.516Z,35.70
2018-08-12T14:14:36.995Z,36.40
2018-08-12T14:17:05.142Z,36.10
2018-08-12T14:19:33.556Z,35.20
2018-08-12T14:22:01.602Z,34.50
2018-08-12T14:24:29.749Z,34.20
2018-08-12T14:26:57.821Z,33.90
2018-08-12T14:29:26.278Z,34.00
2018-08-12T14:31:54.379Z,34.30
2018-08-12T14:34:22.832Z,34.80
2018-08-12T14:36:51.406Z,33.70
2018-08-12T14:39:19.822Z,32.80
2018-08-12T14:41:48.294Z,31.90
2018-08-12T14:44:17.084Z,31.10
2018-08-12T14:46:45.566Z,30.50
2018-08-12T14:49:13.662Z,30.00
2018-08-12T14:51:42.355Z,29.30
2018-08-12T14:54:10.821Z,28.90
2018-08-12T14:56:39.607Z,28.50
2018-08-12T14:59:07.956Z,28.70
2018-08-12T15:01:36.491Z,29.00
2018-08-12T15:04:04.546Z,29.20
2018-08-12T15:06:32.981Z,29.50
2018-08-12T15:09:01.412Z,29.40
2018-08-12T15:11:29.849Z,29.10
2018-08-12T15:13:57.985Z,29.20
2018-08-12T15:16:26.458Z,29.20
2018-08-12T15:18:54.561Z,29.00
2018-08-12T15:21:22.594Z,28.80
2018-08-12T15:23:50.699Z,28.80
2018-08-12T15:26:18.878Z,28.80
2018-08-12T15:28:46.948Z,28.60
2018-08-12T15:31:15.307Z,28.20
2018-08-12T15:33:43.411Z,27.90
2018-08-12T15:36:11.919Z,27.90
2018-08-12T15:38:40.205Z,28.10
2018-08-12T15:41:09.008Z,28.20
2018-08-12T15:43:37.192Z,28.30
2018-08-12T15:46:05.599Z,28.10
2018-08-12T15:48:33.669Z,27.90
2018-08-12T15:51:02.507Z,27.90
2018-08-12T15:53:31.135Z,27.90
2018-08-12T15:55:59.539Z,27.90
2018-08-12T15:58:28.083Z,27.80
2018-08-12T16:00:56.195Z,27.70
2018-08-12T16:03:24.617Z,27.80
2018-08-12T16:05:53.298Z,28.00
2018-08-12T16:08:22.139Z,28.00
2018-08-12T16:10:50.641Z,28.00
2018-08-12T16:13:19.099Z,28.00
2018-08-12T16:15:47.228Z,28.00
2018-08-12T16:18:15.679Z,27.90
2018-08-12T16:20:44.166Z,27.70
2018-08-12T16:23:12.334Z,27.60
2018-08-12T16:25:40.578Z,27.50
2018-08-12T16:28:08.838Z,27.60
2018-08-12T16:30:36.950Z,27.60
2018-08-12T16:33:05.824Z,27.60
2018-08-12T16:35:34.308Z,27.40
2018-08-12T16:38:02.742Z,27.40
2018-08-12T16:40:30.857Z,27.30
2018-08-12T16:42:59.059Z,27.20
2018-08-12T16:45:27.508Z,27.20
2018-08-12T16:47:56.275Z,27.10
2018-08-12T16:50:24.736Z,27.10
2018-08-12T16:52:53.199Z,27.20
2018-08-12T16:55:21.302Z,27.10
2018-08-12T16:57:49.370Z,27.10
2018-08-12T17:00:19.187Z,27.20
2018-08-12T17:02:47.732Z,27.10
2018-08-12T17:05:17.134Z,27.20
2018-08-12T17:07:45.619Z,27.10
2018-08-12T17:10:15.446Z,27.00
2018-08-12T17:12:43.538Z,27.00
2018-08-12T17:15:13.504Z,27.00
2018-08-12T17:17:42.087Z,26.90
2018-08-12T17:20:12.277Z,26.90
2018-08-12T17:22:41.240Z,26.90
2018-08-12T17:25:09.329Z,26.90
2018-08-12T17:27:37.694Z,26.70
2018-08-12T17:30:06.784Z,26.70
2018-08-12T17:32:35.145Z,26.70
2018-08-12T17:35:03.606Z,26.70
2018-08-12T17:37:31.702Z,26.60
2018-08-12T17:39:59.749Z,26.50
2018-08-12T17:42:29.802Z,26.40
2018-08-12T17:44:57.945Z,26.40
2018-08-12T17:47:26.435Z,26.30
2018-08-12T17:49:54.462Z,26.20
2018-08-12T17:52:22.650Z,26.10
2018-08-12T17:54:50.789Z,26.00
2018-08-12T17:57:18.926Z,25.90
2018-08-12T17:59:47.685Z,25.80
2018-08-12T18:02:16.121Z,25.70
2018-08-12T18:04:44.694Z,25.60
2018-08-12T18:07:13.121Z,25.50
2018-08-12T18:09:41.626Z,25.50
2018-08-12T18:12:09.712Z,25.40
2018-08-12T18:14:38.308Z,25.30
2018-08-12T18:17:06.469Z,25.20
2018-08-12T18:19:34.788Z,25.10
2018-08-12T18:22:03.202Z,24.90
2018-08-12T18:24:31.314Z,24.80
2018-08-12T18:26:59.742Z,24.70
2018-08-12T18:29:28.057Z,24.50
2018-08-12T18:31:56.280Z,24.40
2018-08-12T18:34:24.514Z,24.30
2018-08-12T18:36:52.714Z,24.10
2018-08-12T18:39:21.398Z,24.10
2018-08-12T18:41:49.616Z,24.00
2018-08-12T18:44:18.392Z,23.90
2018-08-12T18:46:46.497Z,23.80
2018-08-12T18:49:14.621Z,23.70
2018-08-12T18:51:42.755Z,23.70
2018-08-12T18:54:10.879Z,23.70
2018-08-12T18:56:39.371Z,23.70
2018-08-12T18:59:07.859Z,23.70
2018-08-12T19:01:36.607Z,23.60
2018-08-12T19:04:05.088Z,23.50
2018-08-12T19:06:33.243Z,23.50
2018-08-12T19:09:01.422Z,23.50
2018-08-12T19:11:30.010Z,23.40
2018-08-12T19:13:58.183Z,23.20
2018-08-12T19:16:26.631Z,23.10
2018-08-12T19:18:55.093Z,22.90
2018-08-12T19:21:23.884Z,22.90
2018-08-12T19:23:52.663Z,22.90
2018-08-12T19:26:20.813Z,22.70
2018-08-12T19:28:48.970Z,22.80
2018-08-12T19:31:17.886Z,22.60
2018-08-12T19:33:46.693Z,22.40
2018-08-12T19:36:14.918Z,22.30
2018-08-12T19:38:43.249Z,22.20
2018-08-12T19:41:12.199Z,22.20
2018-08-12T19:43:40.465Z,22.10
2018-08-12T19:46:08.625Z,22.00
2018-08-12T19:48:36.774Z,21.90
2018-08-12T19:51:04.951Z,21.90
2018-08-12T19:53:33.044Z,21.90
2018-08-12T19:56:01.375Z,21.90
2018-08-12T19:58:29.965Z,22.10
2018-08-12T20:00:58.074Z,22.00
2018-08-12T20:03:26.560Z,22.00
2018-08-12T20:05:55.025Z,22.10
2018-08-12T20:08:23.552Z,22.10
2018-08-12T20:10:52.081Z,22.10
2018-08-12T20:13:20.562Z,22.00
2018-08-12T20:15:49.040Z,21.90
2018-08-12T20:18:17.478Z,21.90
2018-08-12T20:20:46.306Z,21.90
2018-08-12T20:23:15.222Z,22.10
2018-08-12T20:25:43.727Z,22.10
2018-08-12T20:28:12.488Z,22.00
2018-08-12T20:30:40.905Z,22.00
2018-08-12T20:33:08.982Z,21.90
2018-08-12T20:35:37.468Z,21.90
2018-08-12T20:38:05.548Z,21.50
2018-08-12T20:40:34.029Z,21.40
2018-08-12T20:43:02.614Z,21.40
2018-08-12T20:45:30.789Z,21.40
2018-08-12T20:47:58.891Z,21.40
2018-08-12T20:50:27.670Z,21.30
2018-08-12T20:52:56.316Z,21.10
2018-08-12T20:55:25.075Z,20.90
2018-08-12T20:57:53.224Z,20.90
2018-08-12T21:00:21.694Z,20.80
2018-08-12T21:02:49.783Z,20.80
2018-08-12T21:05:17.890Z,20.80
2018-08-12T21:07:46.445Z,20.80
2018-08-12T21:10:14.891Z,20.80
2018-08-12T21:12:43.862Z,20.80
2018-08-12T21:15:12.023Z,20.90
2018-08-12T21:17:40.846Z,20.90
2018-08-12T21:20:09.292Z,20.90
2018-08-12T21:22:37.925Z,20.80
2018-08-12T21:25:06.321Z,20.80
2018-08-12T21:27:34.769Z,20.90
2018-08-12T21:30:03.403Z,20.90
2018-08-12T21:32:31.506Z,20.80
2018-08-12T21:35:00.013Z,20.90
2018-08-12T21:37:28.601Z,20.90
2018-08-12T21:39:57.142Z,20.80
2018-08-12T21:42:25.625Z,20.90
2018-08-12T21:44:54.333Z,20.90
2018-08-12T21:47:23.550Z,20.90
2018-08-12T21:49:52.070Z,20.90
2018-08-12T21:52:20.161Z,20.90
2018-08-12T21:54:48.252Z,20.80
2018-08-12T21:57:16.877Z,20.60
2018-08-12T21:59:45.278Z,20.50
2018-08-12T22:02:13.420Z,20.60
2018-08-12T22:04:41.515Z,20.50
2018-08-12T22:07:09.649Z,20.50
2018-08-12T22:09:38.431Z,20.50
2018-08-12T22:12:06.581Z,20.50
2018-08-12T22:14:35.041Z,20.40
2018-08-12T22:17:03.167Z,20.40
2018-08-12T22:19:31.286Z,20.30
2018-08-12T22:22:00.054Z,20.20
2018-08-12T22:24:28.516Z,20.00
2018-08-12T22:26:56.993Z,19.90
2018-08-12T22:29:25.133Z,20.00
2018-08-12T22:31:53.257Z,19.90
2018-08-12T22:34:21.419Z,19.80
2018-08-12T22:36:49.866Z,19.60
2018-08-12T22:39:18.635Z,19.80
2018-08-12T22:41:47.081Z,19.70
2018-08-12T22:44:15.221Z,19.70
2018-08-12T22:46:43.682Z,19.70
2018-08-12T22:49:13.066Z,19.60
2018-08-12T22:51:41.524Z,19.60
2018-08-12T22:54:09.590Z,19.60
2018-08-12T22:56:37.724Z,19.70
2018-08-12T22:59:05.779Z,19.70
2018-08-12T23:01:33.931Z,19.50
2018-08-12T23:04:02.306Z,19.50
2018-08-12T23:06:30.488Z,19.50
2018-08-12T23:08:58.958Z,19.60
2018-08-12T23:11:27.434Z,19.50
2018-08-12T23:13:55.559Z,19.50
2018-08-12T23:16:35.282Z,19.50
2018-08-12T23:19:03.417Z,19.40
2018-08-12T23:21:31.863Z,19.40
2018-08-12T23:24:00.314Z,19.30
2018-08-12T23:26:28.910Z,19.30
2018-08-12T23:28:57.524Z,19.30
2018-08-12T23:31:25.967Z,19.20
2018-08-12T23:33:54.361Z,19.10
2018-08-12T23:36:22.580Z,19.10
2018-08-12T23:38:51.062Z,19.10
2018-08-12T23:41:19.163Z,18.90
2018-08-12T23:43:47.660Z,18.90
2018-08-12T23:46:15.820Z,18.80
2018-08-12T23:48:43.969Z,18.90
2018-08-12T23:51:12.507Z,18.80
2018-08-12T23:53:40.890Z,18.80
2018-08-12T23:56:08.954Z,18.80
2018-08-12T23:58:37.074Z,18.80
